sensor_id;sensor_type;location;lat;lon;timestamp;pressure;altitude;pressure_sealevel;temperature;humidity
20444;BME280;10381;53.730;10.010;2023-04-08T00:03:41;101990.47;;;4.61;100.00
20444;BME280;10381;53.730;10.010;2023-04-08T00:07:42;102001.91;;;4.60;100.00
20444;BME280;10381;53.730;10.010;2023-04-08T00:11:43;101987.00;;;4.60;100.00
20444;BME280;10381;53.730;10.010;2023-04-08T00:15:44;101989.69;;;4.59;100.00
20444;BME280;10381;53.730;10.010;2023-04-08T00:19:44;101991.41;;;4.60;100.00
20444;BME280;10381;53.730;10.010;2023-04-08T00:23:45;101995.66;;;4.62;100.00
20444;BME280;10381;53.730;10.010;2023-04-08T00:27:45;102005.19;;;4.65;100.00
20444;BME280;10381;53.730;10.010;2023-04-08T00:31:46;102003.41;;;4.65;100.00
20444;BME280;10381;53.730;10.010;2023-04-08T00:35:47;102007.81;;;4.65;100.00
20444;BME280;10381;53.730;10.010;2023-04-08T00:39:47;102009.63;;;4.63;100.00
20444;BME280;10381;53.730;10.010;2023-04-08T00:43:47;102009.84;;;4.58;100.00
20444;BME280;10381;53.730;10.010;2023-04-08T00:47:48;102005.91;;;4.48;100.00
20444;BME280;10381;53.730;10.010;2023-04-08T00:51:52;102017.66;;;4.39;100.00
20444;BME280;10381;53.730;10.010;2023-04-08T00:55:53;102023.94;;;4.35;100.00
20444;BME280;10381;53.730;10.010;2023-04-08T00:59:53;102025.91;;;4.30;100.00
20444;BME280;10381;53.730;10.010;2023-04-08T01:08:20;102030.50;;;4.25;100.00
20444;BME280;10381;53.730;10.010;2023-04-08T01:12:27;102032.31;;;4.23;100.00
20444;BME280;10381;53.730;10.010;2023-04-08T01:16:28;102044.47;;;4.25;100.00
20444;BME280;10381;53.730;10.010;2023-04-08T01:20:29;102031.47;;;4.22;100.00
20444;BME280;10381;53.730;10.010;2023-04-08T01:24:32;102039.34;;;4.22;100.00
20444;BME280;10381;53.730;10.010;2023-04-08T01:28:35;102033.25;;;4.22;100.00
20444;BME280;10381;53.730;10.010;2023-04-08T01:32:38;102039.34;;;4.22;100.00
20444;BME280;10381;53.730;10.010;2023-04-08T01:36:39;102034.94;;;4.23;100.00
20444;BME280;10381;53.730;10.010;2023-04-08T01:40:41;102041.31;;;4.17;100.00
20444;BME280;10381;53.730;10.010;2023-04-08T01:44:42;102043.13;;;4.15;100.00
20444;BME280;10381;53.730;10.010;2023-04-08T01:48:44;102023.09;;;4.14;100.00
20444;BME280;10381;53.730;10.010;2023-04-08T01:52:46;102030.94;;;4.14;100.00
20444;BME280;10381;53.730;10.010;2023-04-08T01:56:49;102031.06;;;4.11;100.00
20444;BME280;10381;53.730;10.010;2023-04-08T02:00:51;102033.56;;;4.14;100.00
20444;BME280;10381;53.730;10.010;2023-04-08T02:04:53;102033.63;;;4.13;100.00
20444;BME280;10381;53.730;10.010;2023-04-08T02:08:54;102028.38;;;4.13;100.00
20444;BME280;10381;53.730;10.010;2023-04-08T02:12:55;102021.50;;;4.10;100.00
20444;BME280;10381;53.730;10.010;2023-04-08T02:17:04;102021.50;;;4.10;100.00
20444;BME280;10381;53.730;10.010;2023-04-08T02:21:10;102021.50;;;4.10;100.00
20444;BME280;10381;53.730;10.010;2023-04-08T02:25:14;102013.69;;;4.09;100.00
20444;BME280;10381;53.730;10.010;2023-04-08T02:29:15;102027.50;;;4.14;100.00
20444;BME280;10381;53.730;10.010;2023-04-08T02:33:18;102029.22;;;4.13;100.00
20444;BME280;10381;53.730;10.010;2023-04-08T02:37:20;102017.91;;;4.13;100.00
20444;BME280;10381;53.730;10.010;2023-04-08T02:41:20;102021.44;;;4.12;100.00
20444;BME280;10381;53.730;10.010;2023-04-08T02:45:21;102015.31;;;4.11;100.00
20444;BME280;10381;53.730;10.010;2023-04-08T02:49:21;102012.66;;;4.13;100.00
20444;BME280;10381;53.730;10.010;2023-04-08T02:53:22;102015.31;;;4.11;100.00
20444;BME280;10381;53.730;10.010;2023-04-08T02:57:23;102009.31;;;4.09;100.00
20444;BME280;10381;53.730;10.010;2023-04-08T03:01:23;102016.13;;;4.13;100.00
20444;BME280;10381;53.730;10.010;2023-04-08T03:05:25;102017.75;;;4.16;100.00
20444;BME280;10381;53.730;10.010;2023-04-08T03:09:25;102020.47;;;4.14;100.00
20444;BME280;10381;53.730;10.010;2023-04-08T03:13:25;102009.84;;;4.17;100.00
20444;BME280;10381;53.730;10.010;2023-04-08T03:17:26;102030.94;;;4.14;100.00
20444;BME280;10381;53.730;10.010;2023-04-08T03:21:26;102027.41;;;4.15;100.00
20444;BME280;10381;53.730;10.010;2023-04-08T03:25:26;102028.53;;;4.10;100.00
20444;BME280;10381;53.730;10.010;2023-04-08T03:29:28;102044.97;;;4.13;100.00
20444;BME280;10381;53.730;10.010;2023-04-08T03:33:28;102037.09;;;4.13;100.00
20444;BME280;10381;53.730;10.010;2023-04-08T03:37:28;102039.72;;;4.13;100.00
20444;BME280;10381;53.730;10.010;2023-04-08T03:41:29;102046.88;;;4.10;100.00
20444;BME280;10381;53.730;10.010;2023-04-08T03:45:29;102039.25;;;4.03;100.00
20444;BME280;10381;53.730;10.010;2023-04-08T03:49:29;102046.22;;;4.04;100.00
20444;BME280;10381;53.730;10.010;2023-04-08T03:53:30;102051.28;;;4.09;100.00
20444;BME280;10381;53.730;10.010;2023-04-08T03:57:30;102047.06;;;4.05;100.00
20444;BME280;10381;53.730;10.010;2023-04-08T04:01:30;102048.03;;;4.02;100.00
20444;BME280;10381;53.730;10.010;2023-04-08T04:05:31;102047.19;;;4.02;100.00
20444;BME280;10381;53.730;10.010;2023-04-08T04:09:31;102056.75;;;4.03;100.00
20444;BME280;10381;53.730;10.010;2023-04-08T04:13:31;102066.72;;;3.95;100.00
20444;BME280;10381;53.730;10.010;2023-04-08T04:17:32;102068.66;;;3.90;100.00
20444;BME280;10381;53.730;10.010;2023-04-08T04:21:32;102066.03;;;3.90;100.00
20444;BME280;10381;53.730;10.010;2023-04-08T04:25:32;102073.16;;;3.86;100.00
20444;BME280;10381;53.730;10.010;2023-04-08T04:29:32;102082.81;;;3.86;100.00
20444;BME280;10381;53.730;10.010;2023-04-08T04:33:33;102083.69;;;3.84;100.00
20444;BME280;10381;53.730;10.010;2023-04-08T04:37:33;102092.38;;;3.87;100.00
20444;BME280;10381;53.730;10.010;2023-04-08T04:41:33;102094.13;;;3.86;100.00
20444;BME280;10381;53.730;10.010;2023-04-08T04:45:37;102094.09;;;3.88;100.00
20444;BME280;10381;53.730;10.010;2023-04-08T04:49:38;102094.88;;;3.90;100.00
20444;BME280;10381;53.730;10.010;2023-04-08T04:53:39;102104.41;;;3.92;100.00
20444;BME280;10381;53.730;10.010;2023-04-08T04:57:39;102108.03;;;3.88;100.00
20444;BME280;10381;53.730;10.010;2023-04-08T05:01:39;102115.34;;;3.80;100.00
20444;BME280;10381;53.730;10.010;2023-04-08T05:05:40;102115.53;;;3.75;100.00
20444;BME280;10381;53.730;10.010;2023-04-08T05:09:40;102124.97;;;3.79;100.00
20444;BME280;10381;53.730;10.010;2023-04-08T05:13:40;102120.47;;;3.83;100.00
20444;BME280;10381;53.730;10.010;2023-04-08T05:17:41;102126.44;;;3.87;100.00
20444;BME280;10381;53.730;10.010;2023-04-08T05:21:41;102142.53;;;3.77;100.00
20444;BME280;10381;53.730;10.010;2023-04-08T05:25:41;102139.72;;;3.82;100.00
20444;BME280;10381;53.730;10.010;2023-04-08T05:29:41;102148.53;;;3.81;100.00
20444;BME280;10381;53.730;10.010;2023-04-08T05:33:42;102145.94;;;3.79;100.00
20444;BME280;10381;53.730;10.010;2023-04-08T05:37:42;102146.63;;;3.84;100.00
20444;BME280;10381;53.730;10.010;2023-04-08T05:41:43;102146.53;;;3.88;100.00
20444;BME280;10381;53.730;10.010;2023-04-08T05:45:43;102145.84;;;3.82;100.00
20444;BME280;10381;53.730;10.010;2023-04-08T05:49:44;102143.16;;;3.84;100.00
20444;BME280;10381;53.730;10.010;2023-04-08T05:53:44;102148.09;;;3.92;100.00
20444;BME280;10381;53.730;10.010;2023-04-08T05:57:46;102140.91;;;3.97;100.00
20444;BME280;10381;53.730;10.010;2023-04-08T06:01:46;102150.38;;;4.01;100.00
20444;BME280;10381;53.730;10.010;2023-04-08T06:05:46;102151.84;;;4.08;100.00
20444;BME280;10381;53.730;10.010;2023-04-08T06:09:46;102156.28;;;4.28;100.00
20444;BME280;10381;53.730;10.010;2023-04-08T06:13:47;102159.88;;;4.25;100.00
20444;BME280;10381;53.730;10.010;2023-04-08T06:17:48;102163.75;;;4.17;100.00
20444;BME280;10381;53.730;10.010;2023-04-08T06:21:49;102165.63;;;4.13;100.00
20444;BME280;10381;53.730;10.010;2023-04-08T06:25:52;102178.31;;;4.24;100.00
20444;BME280;10381;53.730;10.010;2023-04-08T06:29:52;102179.41;;;4.18;100.00
20444;BME280;10381;53.730;10.010;2023-04-08T06:33:54;102183.13;;;4.13;100.00
20444;BME280;10381;53.730;10.010;2023-04-08T06:37:55;102189.31;;;4.12;100.00
20444;BME280;10381;53.730;10.010;2023-04-08T06:41:55;102189.03;;;4.18;100.00
20444;BME280;10381;53.730;10.010;2023-04-08T06:45:57;102191.97;;;4.32;100.00
20444;BME280;10381;53.730;10.010;2023-04-08T06:49:57;102189.34;;;4.32;100.00
20444;BME280;10381;53.730;10.010;2023-04-08T06:53:58;102205.09;;;4.32;100.00
20444;BME280;10381;53.730;10.010;2023-04-08T06:57:58;102205.84;;;4.36;100.00
20444;BME280;10381;53.730;10.010;2023-04-08T07:02:01;102209.13;;;4.41;100.00
20444;BME280;10381;53.730;10.010;2023-04-08T07:06:02;102211.50;;;4.47;100.00
20444;BME280;10381;53.730;10.010;2023-04-08T07:10:03;102216.88;;;4.44;100.00
20444;BME280;10381;53.730;10.010;2023-04-08T07:14:03;102218.41;;;4.49;100.00
20444;BME280;10381;53.730;10.010;2023-04-08T07:18:04;102214.03;;;4.50;100.00
20444;BME280;10381;53.730;10.010;2023-04-08T07:22:05;102209.53;;;4.52;100.00
20444;BME280;10381;53.730;10.010;2023-04-08T07:26:05;102213.63;;;4.59;100.00
20444;BME280;10381;53.730;10.010;2023-04-08T07:30:06;102214.56;;;4.58;100.00
20444;BME280;10381;53.730;10.010;2023-04-08T07:34:06;102220.31;;;4.46;100.00
20444;BME280;10381;53.730;10.010;2023-04-08T07:38:06;102227.63;;;4.38;100.00
20444;BME280;10381;53.730;10.010;2023-04-08T07:42:10;102227.72;;;4.35;100.00
20444;BME280;10381;53.730;10.010;2023-04-08T07:46:11;102233.13;;;4.32;100.00
20444;BME280;10381;53.730;10.010;2023-04-08T07:50:12;102239.97;;;4.36;100.00
20444;BME280;10381;53.730;10.010;2023-04-08T07:54:12;102234.72;;;4.36;100.00
20444;BME280;10381;53.730;10.010;2023-04-08T07:58:16;102234.94;;;4.52;100.00
20444;BME280;10381;53.730;10.010;2023-04-08T08:02:16;102242.75;;;4.75;100.00
20444;BME280;10381;53.730;10.010;2023-04-08T08:06:16;102248.84;;;4.76;100.00
20444;BME280;10381;53.730;10.010;2023-04-08T08:10:17;102239.56;;;4.89;100.00
20444;BME280;10381;53.730;10.010;2023-04-08T08:14:17;102251.03;;;5.08;100.00
20444;BME280;10381;53.730;10.010;2023-04-08T08:18:18;102249.94;;;4.92;100.00
20444;BME280;10381;53.730;10.010;2023-04-08T08:22:18;102246.41;;;4.93;100.00
20444;BME280;10381;53.730;10.010;2023-04-08T08:26:18;102254.66;;;4.84;100.00
20444;BME280;10381;53.730;10.010;2023-04-08T08:30:18;102253.25;;;4.75;100.00
20444;BME280;10381;53.730;10.010;2023-04-08T08:34:21;102262.84;;;5.19;100.00
20444;BME280;10381;53.730;10.010;2023-04-08T08:38:21;102252.09;;;5.25;100.00
20444;BME280;10381;53.730;10.010;2023-04-08T08:42:23;102247.22;;;5.36;100.00
20444;BME280;10381;53.730;10.010;2023-04-08T08:46:23;102250.25;;;5.27;100.00
20444;BME280;10381;53.730;10.010;2023-04-08T08:50:24;102251.16;;;5.26;100.00
20444;BME280;10381;53.730;10.010;2023-04-08T08:54:24;102259.88;;;5.26;100.00
20444;BME280;10381;53.730;10.010;2023-04-08T08:58:27;102257.22;;;5.28;100.00
20444;BME280;10381;53.730;10.010;2023-04-08T09:02:29;102261.28;;;5.35;100.00
20444;BME280;10381;53.730;10.010;2023-04-08T09:06:30;102258.31;;;5.43;100.00
20444;BME280;10381;53.730;10.010;2023-04-08T09:10:30;102258.78;;;5.32;100.00
20444;BME280;10381;53.730;10.010;2023-04-08T09:14:31;102261.78;;;5.43;100.00
20444;BME280;10381;53.730;10.010;2023-04-08T09:18:32;102253.47;;;5.54;100.00
20444;BME280;10381;53.730;10.010;2023-04-08T09:22:32;102262.69;;;5.63;100.00
20444;BME280;10381;53.730;10.010;2023-04-08T09:26:32;102261.91;;;6.02;100.00
20444;BME280;10381;53.730;10.010;2023-04-08T09:30:33;102273.41;;;6.18;100.00
20444;BME280;10381;53.730;10.010;2023-04-08T09:34:35;102266.66;;;6.31;100.00
20444;BME280;10381;53.730;10.010;2023-04-08T09:38:35;102274.19;;;6.39;100.00
20444;BME280;10381;53.730;10.010;2023-04-08T09:42:39;102262.75;;;6.76;100.00
20444;BME280;10381;53.730;10.010;2023-04-08T09:50:49;102262.47;;;6.64;100.00
20444;BME280;10381;53.730;10.010;2023-04-08T09:55:01;102271.09;;;6.67;100.00
20444;BME280;10381;53.730;10.010;2023-04-08T09:59:09;102264.53;;;6.21;100.00
20444;BME280;10381;53.730;10.010;2023-04-08T10:03:34;102265.22;;;6.24;100.00
20444;BME280;10381;53.730;10.010;2023-04-08T10:07:36;102269.44;;;6.28;100.00
20444;BME280;10381;53.730;10.010;2023-04-08T10:11:36;102281.81;;;6.45;100.00
20444;BME280;10381;53.730;10.010;2023-04-08T10:15:37;102267.59;;;6.30;100.00
20444;BME280;10381;53.730;10.010;2023-04-08T10:19:39;102265.16;;;6.45;100.00
20444;BME280;10381;53.730;10.010;2023-04-08T10:23:54;102260.97;;;6.40;100.00
20444;BME280;10381;53.730;10.010;2023-04-08T10:27:56;102265.94;;;6.47;100.00
20444;BME280;10381;53.730;10.010;2023-04-08T10:32:02;102270.28;;;6.48;100.00
20444;BME280;10381;53.730;10.010;2023-04-08T10:40:08;102276.75;;;6.40;100.00
20444;BME280;10381;53.730;10.010;2023-04-08T10:44:20;102268.66;;;6.26;100.00
20444;BME280;10381;53.730;10.010;2023-04-08T10:48:22;102274.72;;;6.28;100.00
20444;BME280;10381;53.730;10.010;2023-04-08T10:52:28;102269.06;;;6.55;100.00
20444;BME280;10381;53.730;10.010;2023-04-08T10:56:28;102270.75;;;6.56;100.00
20444;BME280;10381;53.730;10.010;2023-04-08T11:04:40;102274.34;;;6.55;100.00
20444;BME280;10381;53.730;10.010;2023-04-08T11:08:41;102273.34;;;6.57;100.00
20444;BME280;10381;53.730;10.010;2023-04-08T11:12:42;102287.56;;;6.34;100.00
20444;BME280;10381;53.730;10.010;2023-04-08T11:16:42;102285.28;;;6.27;100.00
20444;BME280;10381;53.730;10.010;2023-04-08T11:20:43;102289.28;;;6.35;100.00
20444;BME280;10381;53.730;10.010;2023-04-08T11:24:43;102289.66;;;6.28;100.00
20444;BME280;10381;53.730;10.010;2023-04-08T11:28:45;102290.63;;;6.25;100.00
20444;BME280;10381;53.730;10.010;2023-04-08T11:32:48;102283.25;;;6.33;100.00
20444;BME280;10381;53.730;10.010;2023-04-08T11:36:49;102284.94;;;6.34;100.00
20444;BME280;10381;53.730;10.010;2023-04-08T11:40:56;102285.66;;;6.38;100.00
20444;BME280;10381;53.730;10.010;2023-04-08T11:44:58;102274.03;;;6.61;100.00
20444;BME280;10381;53.730;10.010;2023-04-08T11:49:05;102277.25;;;6.49;100.00
20444;BME280;10381;53.730;10.010;2023-04-08T11:53:20;102280.28;;;6.58;100.00
20444;BME280;10381;53.730;10.010;2023-04-08T11:57:27;102277.56;;;6.79;100.00
20444;BME280;10381;53.730;10.010;2023-04-08T12:01:28;102276.56;;;6.81;100.00
20444;BME280;10381;53.730;10.010;2023-04-08T12:05:29;102269.94;;;6.73;100.00
20444;BME280;10381;53.730;10.010;2023-04-08T12:09:29;102276.41;;;6.85;100.00
20444;BME280;10381;53.730;10.010;2023-04-08T12:13:29;102276.97;;;6.91;100.00
20444;BME280;10381;53.730;10.010;2023-04-08T12:17:30;102284.31;;;6.85;100.00
20444;BME280;10381;53.730;10.010;2023-04-08T12:21:30;102299.41;;;6.81;100.00
20444;BME280;10381;53.730;10.010;2023-04-08T12:25:31;102292.97;;;6.69;100.00
20444;BME280;10381;53.730;10.010;2023-04-08T12:29:31;102289.69;;;6.64;100.00
20444;BME280;10381;53.730;10.010;2023-04-08T12:33:32;102294.06;;;6.82;100.00
20444;BME280;10381;53.730;10.010;2023-04-08T12:37:32;102288.50;;;6.89;100.00
20444;BME280;10381;53.730;10.010;2023-04-08T12:41:33;102280.38;;;6.93;100.00
20444;BME280;10381;53.730;10.010;2023-04-08T12:45:33;102289.75;;;6.99;100.00
20444;BME280;10381;53.730;10.010;2023-04-08T12:49:33;102292.75;;;6.74;100.00
20444;BME280;10381;53.730;10.010;2023-04-08T12:53:33;102296.16;;;6.76;100.00
20444;BME280;10381;53.730;10.010;2023-04-08T12:57:34;102303.34;;;6.72;100.00
20444;BME280;10381;53.730;10.010;2023-04-08T13:01:34;102297.72;;;6.61;100.00
20444;BME280;10381;53.730;10.010;2023-04-08T13:05:34;102298.44;;;6.65;100.00
20444;BME280;10381;53.730;10.010;2023-04-08T13:09:35;102307.91;;;6.69;100.00
20444;BME280;10381;53.730;10.010;2023-04-08T13:13:35;102307.06;;;6.49;100.00
20444;BME280;10381;53.730;10.010;2023-04-08T13:17:36;102309.03;;;6.63;100.00
20444;BME280;10381;53.730;10.010;2023-04-08T13:21:37;102307.34;;;6.62;100.00
20444;BME280;10381;53.730;10.010;2023-04-08T13:25:37;102306.94;;;6.52;100.00
20444;BME280;10381;53.730;10.010;2023-04-08T13:29:37;102310.03;;;6.60;100.00
20444;BME280;10381;53.730;10.010;2023-04-08T13:33:37;102307.16;;;6.48;100.00
20444;BME280;10381;53.730;10.010;2023-04-08T13:37:38;102310.47;;;6.70;100.00
20444;BME280;10381;53.730;10.010;2023-04-08T13:41:38;102313.00;;;6.91;100.00
20444;BME280;10381;53.730;10.010;2023-04-08T13:45:38;102302.53;;;6.89;100.00
20444;BME280;10381;53.730;10.010;2023-04-08T13:49:39;102305.94;;;6.91;100.00
20444;BME280;10381;53.730;10.010;2023-04-08T13:53:40;102303.81;;;6.80;100.00
20444;BME280;10381;53.730;10.010;2023-04-08T13:57:40;102304.47;;;6.86;100.00
20444;BME280;10381;53.730;10.010;2023-04-08T14:01:40;102294.38;;;6.76;100.00
20444;BME280;10381;53.730;10.010;2023-04-08T14:05:41;102297.91;;;6.75;100.00
20444;BME280;10381;53.730;10.010;2023-04-08T14:09:41;102300.91;;;6.87;100.00
20444;BME280;10381;53.730;10.010;2023-04-08T14:13:41;102301.72;;;6.70;100.00
20444;BME280;10381;53.730;10.010;2023-04-08T14:17:41;102299.06;;;6.70;100.00
20444;BME280;10381;53.730;10.010;2023-04-08T14:21:42;102301.03;;;6.47;100.00
20444;BME280;10381;53.730;10.010;2023-04-08T14:25:42;102299.47;;;6.79;100.00
20444;BME280;10381;53.730;10.010;2023-04-08T14:29:43;102293.97;;;7.03;100.00
20444;BME280;10381;53.730;10.010;2023-04-08T14:33:43;102292.84;;;6.90;100.00
20444;BME280;10381;53.730;10.010;2023-04-08T14:37:45;102291.31;;;7.03;100.00
20444;BME280;10381;53.730;10.010;2023-04-08T14:41:46;102293.78;;;7.06;100.00
20444;BME280;10381;53.730;10.010;2023-04-08T14:45:48;102276.84;;;7.29;100.00
20444;BME280;10381;53.730;10.010;2023-04-08T14:49:49;102282.63;;;7.18;100.00
20444;BME280;10381;53.730;10.010;2023-04-08T14:53:49;102277.66;;;6.95;100.00
20444;BME280;10381;53.730;10.010;2023-04-08T14:57:49;102280.78;;;7.03;100.00
20444;BME280;10381;53.730;10.010;2023-04-08T15:01:50;102288.53;;;7.06;100.00
20444;BME280;10381;53.730;10.010;2023-04-08T15:05:50;102282.16;;;6.93;100.00
20444;BME280;10381;53.730;10.010;2023-04-08T15:09:50;102281.06;;;6.97;100.00
20444;BME280;10381;53.730;10.010;2023-04-08T15:13:51;102285.72;;;7.09;100.00
20444;BME280;10381;53.730;10.010;2023-04-08T15:17:51;102286.28;;;6.98;100.00
20444;BME280;10381;53.730;10.010;2023-04-08T15:21:51;102286.84;;;7.05;100.00
20444;BME280;10381;53.730;10.010;2023-04-08T15:25:52;102288.59;;;7.04;100.00
20444;BME280;10381;53.730;10.010;2023-04-08T15:29:52;102290.47;;;7.02;100.00
20444;BME280;10381;53.730;10.010;2023-04-08T15:33:52;102297.47;;;6.85;100.00
20444;BME280;10381;53.730;10.010;2023-04-08T15:37:53;102300.13;;;7.02;100.00
20444;BME280;10381;53.730;10.010;2023-04-08T15:41:53;102293.97;;;7.03;100.00
20444;BME280;10381;53.730;10.010;2023-04-08T15:45:54;102298.38;;;7.02;100.00
20444;BME280;10381;53.730;10.010;2023-04-08T15:49:54;102295.75;;;7.02;100.00
20444;BME280;10381;53.730;10.010;2023-04-08T15:53:59;102300.75;;;6.90;100.00
20444;BME280;10381;53.730;10.010;2023-04-08T15:58:00;102301.59;;;6.90;100.00
20444;BME280;10381;53.730;10.010;2023-04-08T16:02:00;102305.03;;;6.73;100.00
20444;BME280;10381;53.730;10.010;2023-04-08T16:06:01;102310.09;;;6.78;100.00
20444;BME280;10381;53.730;10.010;2023-04-08T16:10:01;102316.09;;;6.99;100.00
20444;BME280;10381;53.730;10.010;2023-04-08T16:14:02;102313.47;;;6.99;100.00
20444;BME280;10381;53.730;10.010;2023-04-08T16:18:04;102310.78;;;7.18;100.00
20444;BME280;10381;53.730;10.010;2023-04-08T16:22:05;102303.09;;;7.13;100.00
20444;BME280;10381;53.730;10.010;2023-04-08T16:26:06;102303.94;;;7.14;100.00
20444;BME280;10381;53.730;10.010;2023-04-08T16:30:09;102300.13;;;7.02;100.00
20444;BME280;10381;53.730;10.010;2023-04-08T16:34:10;102303.72;;;7.01;100.00
20444;BME280;10381;53.730;10.010;2023-04-08T16:38:10;102307.06;;;7.39;100.00
20444;BME280;10381;53.730;10.010;2023-04-08T16:42:11;102312.56;;;7.52;100.00
20444;BME280;10381;53.730;10.010;2023-04-08T16:46:14;102295.84;;;7.53;100.00
20444;BME280;10381;53.730;10.010;2023-04-08T16:50:15;102287.03;;;7.53;100.00
20444;BME280;10381;53.730;10.010;2023-04-08T16:54:15;102298.16;;;7.42;100.00
20444;BME280;10381;53.730;10.010;2023-04-08T16:58:15;102297.16;;;7.10;100.00
20444;BME280;10381;53.730;10.010;2023-04-08T17:02:16;102302.13;;;6.79;100.00
20444;BME280;10381;53.730;10.010;2023-04-08T17:06:16;102305.78;;;6.58;100.00
20444;BME280;10381;53.730;10.010;2023-04-08T17:10:17;102303.56;;;6.49;100.00
20444;BME280;10381;53.730;10.010;2023-04-08T17:14:18;102307.59;;;6.18;100.00
20444;BME280;10381;53.730;10.010;2023-04-08T17:18:18;102311.88;;;6.02;100.00
20444;BME280;10381;53.730;10.010;2023-04-08T17:22:18;102310.31;;;5.97;100.00
20444;BME280;10381;53.730;10.010;2023-04-08T17:26:18;102307.97;;;5.90;100.00
20444;BME280;10381;53.730;10.010;2023-04-08T17:30:19;102310.28;;;5.77;100.00
20444;BME280;10381;53.730;10.010;2023-04-08T17:34:19;102310.91;;;5.63;100.00
20444;BME280;10381;53.730;10.010;2023-04-08T17:38:20;102317.69;;;5.48;100.00
20444;BME280;10381;53.730;10.010;2023-04-08T17:42:20;102317.50;;;5.31;100.00
20444;BME280;10381;53.730;10.010;2023-04-08T17:46:22;102327.88;;;5.13;100.00
20444;BME280;10381;53.730;10.010;2023-04-08T17:50:23;102327.63;;;4.98;100.00
20444;BME280;10381;53.730;10.010;2023-04-08T17:54:23;102328.13;;;4.85;100.00
20444;BME280;10381;53.730;10.010;2023-04-08T17:58:24;102328.09;;;4.63;100.00
20444;BME280;10381;53.730;10.010;2023-04-08T18:02:25;102328.69;;;4.48;100.00
20444;BME280;10381;53.730;10.010;2023-04-08T18:06:28;102340.38;;;4.39;100.00
20444;BME280;10381;53.730;10.010;2023-04-08T18:10:28;102345.25;;;4.26;100.00
20444;BME280;10381;53.730;10.010;2023-04-08T18:14:28;102342.28;;;4.12;100.00
20444;BME280;10381;53.730;10.010;2023-04-08T18:18:29;102356.56;;;4.03;100.00
20444;BME280;10381;53.730;10.010;2023-04-08T18:22:29;102360.16;;;4.01;100.00
20444;BME280;10381;53.730;10.010;2023-04-08T18:26:30;102367.13;;;3.77;100.00
20444;BME280;10381;53.730;10.010;2023-04-08T18:30:30;102371.28;;;3.57;100.00
20444;BME280;10381;53.730;10.010;2023-04-08T18:34:30;102376.25;;;3.65;100.00
20444;BME280;10381;53.730;10.010;2023-04-08T18:38:31;102370.81;;;3.96;100.00
20444;BME280;10381;53.730;10.010;2023-04-08T18:42:31;102381.91;;;4.28;100.00
20444;BME280;10381;53.730;10.010;2023-04-08T18:46:31;102390.09;;;4.44;100.00
20444;BME280;10381;53.730;10.010;2023-04-08T18:50:32;102390.09;;;4.44;100.00
20444;BME280;10381;53.730;10.010;2023-04-08T18:54:32;102390.09;;;4.44;100.00
20444;BME280;10381;53.730;10.010;2023-04-08T18:58:32;102394.78;;;4.36;100.00
20444;BME280;10381;53.730;10.010;2023-04-08T19:02:33;102388.94;;;4.27;100.00
20444;BME280;10381;53.730;10.010;2023-04-08T19:06:34;102396.91;;;4.24;100.00
20444;BME280;10381;53.730;10.010;2023-04-08T19:10:36;102403.38;;;4.39;100.00
20444;BME280;10381;53.730;10.010;2023-04-08T19:14:36;102402.53;;;4.62;100.00
20444;BME280;10381;53.730;10.010;2023-04-08T19:18:36;102415.31;;;4.72;100.00
20444;BME280;10381;53.730;10.010;2023-04-08T19:22:37;102403.59;;;4.80;100.00
20444;BME280;10381;53.730;10.010;2023-04-08T19:26:37;102401.59;;;4.87;100.00
20444;BME280;10381;53.730;10.010;2023-04-08T19:30:38;102397.78;;;4.96;100.00
20444;BME280;10381;53.730;10.010;2023-04-08T19:34:38;102400.44;;;4.94;100.00
20444;BME280;10381;53.730;10.010;2023-04-08T19:38:38;102398.75;;;4.93;100.00
20444;BME280;10381;53.730;10.010;2023-04-08T19:42:38;102391.75;;;4.92;100.00
20444;BME280;10381;53.730;10.010;2023-04-08T19:46:39;102397.00;;;4.92;100.00
20444;BME280;10381;53.730;10.010;2023-04-08T19:50:39;102397.81;;;4.94;100.00
20444;BME280;10381;53.730;10.010;2023-04-08T19:54:40;102389.09;;;4.94;100.00
20444;BME280;10381;53.730;10.010;2023-04-08T19:58:42;102393.53;;;4.91;100.00
20444;BME280;10381;53.730;10.010;2023-04-08T20:02:42;102397.06;;;4.90;100.00
20444;BME280;10381;53.730;10.010;2023-04-08T20:06:42;102393.59;;;4.90;100.00
20444;BME280;10381;53.730;10.010;2023-04-08T20:10:43;102394.66;;;4.86;100.00
20444;BME280;10381;53.730;10.010;2023-04-08T20:14:43;102399.69;;;4.90;100.00
20444;BME280;10381;53.730;10.010;2023-04-08T20:18:44;102402.91;;;4.99;100.00
20444;BME280;10381;53.730;10.010;2023-04-08T20:22:44;102410.66;;;5.02;100.00
20444;BME280;10381;53.730;10.010;2023-04-08T20:26:46;102405.22;;;5.06;100.00
20444;BME280;10381;53.730;10.010;2023-04-08T20:30:47;102414.69;;;5.10;100.00
20444;BME280;10381;53.730;10.010;2023-04-08T20:34:48;102414.56;;;5.13;100.00
20444;BME280;10381;53.730;10.010;2023-04-08T20:38:48;102413.53;;;5.18;100.00
20444;BME280;10381;53.730;10.010;2023-04-08T20:42:48;102416.84;;;5.23;100.00
20444;BME280;10381;53.730;10.010;2023-04-08T20:46:49;102421.91;;;5.27;100.00
20444;BME280;10381;53.730;10.010;2023-04-08T20:50:49;102422.56;;;5.32;100.00
20444;BME280;10381;53.730;10.010;2023-04-08T20:54:50;102420.75;;;5.34;100.00
20444;BME280;10381;53.730;10.010;2023-04-08T20:58:50;102417.31;;;5.32;100.00
20444;BME280;10381;53.730;10.010;2023-04-08T21:02:50;102421.59;;;5.35;100.00